Time;durP1;ratioP1;P1;durP2;ratioP2;P2;SDS_P1;SDS_P2;PMS_P1;PMS_P2;Temp;Humidity;BMP_temperature;BMP_pressure;BME280_temperature;BME280_humidity;BME280_pressure;Samples;Min_cycle;Max_cycle;Signal;HPM_P1;HPM_P2
2022/05/29 00:00:09;;;;;;;3.00;1.50;;;;;;;;;;4986919;28;20248;-79
2022/05/29 00:02:34;;;;;;;3.17;1.90;;;;;;;;;;4993754;28;20205;-79
2022/05/29 00:04:59;;;;;;;1.50;1.40;;;;;;;;;;4992479;28;20181;-79
2022/05/29 00:07:24;;;;;;;3.57;1.53;;;;;;;;;;4992877;28;20198;-79
2022/05/29 00:09:52;;;;;;;2.63;1.60;;;;;;;;;;4998745;28;20262;-79
2022/05/29 00:12:17;;;;;;;4.40;1.87;;;;;;;;;;4986860;28;20230;-78
2022/05/29 00:14:43;;;;;;;1.97;1.63;;;;;;;;;;4986585;28;20179;-78
2022/05/29 00:17:08;;;;;;;2.87;1.57;;;;;;;;;;5009279;28;20212;-79
2022/05/29 00:19:34;;;;;;;1.67;1.57;;;;;;;;;;5005748;28;20169;-78
2022/05/29 00:22:00;;;;;;;2.67;1.90;;;;;;;;;;5023593;28;20219;-79
2022/05/29 00:24:28;;;;;;;2.83;1.93;;;;;;;;;;4990423;28;20170;-79
2022/05/29 00:26:54;;;;;;;4.70;2.10;;;;;;;;;;4987695;28;20273;-78
2022/05/29 00:29:19;;;;;;;2.87;1.80;;;;;;;;;;5004159;28;20173;-79
2022/05/29 00:31:45;;;;;;;7.17;1.90;;;;;;;;;;4992884;28;20177;-79
2022/05/29 00:34:10;;;;;;;1.53;1.43;;;;;;;;;;5003293;28;20184;-79
2022/05/29 00:36:38;;;;;;;4.33;1.60;;;;;;;;;;5020900;28;20207;-78
2022/05/29 00:39:03;;;;;;;5.33;1.60;;;;;;;;;;4995199;28;20170;-79
2022/05/29 00:41:33;;;;;;;3.83;1.90;;;;;;;;;;4987882;28;20176;-79
2022/05/29 00:44:17;;;;;;;3.90;1.67;;;;;;;;;;4987629;28;20185;-79
2022/05/29 00:46:44;;;;;;;2.47;1.47;;;;;;;;;;5021922;28;20182;-79
2022/05/29 00:49:10;;;;;;;3.07;1.70;;;;;;;;;;5006225;28;20177;-79
2022/05/29 00:51:37;;;;;;;3.03;1.70;;;;;;;;;;4995502;28;20197;-79
2022/05/29 00:54:04;;;;;;;1.60;1.50;;;;;;;;;;4993881;28;20207;-78
2022/05/29 00:56:29;;;;;;;1.73;1.57;;;;;;;;;;5005006;28;20533;-79
2022/05/29 00:58:56;;;;;;;2.87;1.70;;;;;;;;;;4991171;28;20185;-79
2022/05/29 01:01:21;;;;;;;1.97;1.80;;;;;;;;;;5002111;28;20247;-79
2022/05/29 01:03:47;;;;;;;2.10;1.80;;;;;;;;;;4991639;28;20200;-78
2022/05/29 01:06:12;;;;;;;1.60;1.47;;;;;;;;;;4984720;28;20332;-78
2022/05/29 01:08:37;;;;;;;3.40;1.70;;;;;;;;;;4999870;28;20178;-79
2022/05/29 01:11:12;;;;;;;2.47;1.60;;;;;;;;;;4993439;28;20249;-79
2022/05/29 01:13:43;;;;;;;1.70;1.60;;;;;;;;;;5007234;28;20180;-79
2022/05/29 01:16:27;;;;;;;6.53;2.20;;;;;;;;;;5015281;28;20212;-79
2022/05/29 01:18:58;;;;;;;1.83;1.53;;;;;;;;;;5013627;28;20226;-78
2022/05/29 01:21:42;;;;;;;2.43;2.20;;;;;;;;;;4994381;28;20213;-79
2022/05/29 01:24:16;;;;;;;1.60;1.43;;;;;;;;;;5025663;28;20188;-79
2022/05/29 01:26:57;;;;;;;1.73;1.63;;;;;;;;;;5005474;28;20189;-79
2022/05/29 01:29:45;;;;;;;2.20;1.80;;;;;;;;;;4984042;28;20180;-79
2022/05/29 01:32:18;;;;;;;1.97;1.77;;;;;;;;;;5020722;28;20184;-79
2022/05/29 01:34:51;;;;;;;2.57;1.50;;;;;;;;;;4992459;28;20198;-79
2022/05/29 01:37:21;;;;;;;3.37;1.70;;;;;;;;;;5001089;28;20200;-79
2022/05/29 01:39:55;;;;;;;1.60;1.50;;;;;;;;;;4991745;28;20203;-79
2022/05/29 01:42:36;;;;;;;1.73;1.50;;;;;;;;;;5019037;28;20175;-79
2022/05/29 01:45:07;;;;;;;2.50;1.60;;;;;;;;;;5009064;28;20182;-78
2022/05/29 01:47:41;;;;;;;2.10;1.50;;;;;;;;;;4987267;28;20199;-79
2022/05/29 01:50:08;;;;;;;3.93;1.93;;;;;;;;;;4995564;28;20240;-79
2022/05/29 01:52:36;;;;;;;4.13;2.13;;;;;;;;;;4993403;28;20180;-79
2022/05/29 01:55:08;;;;;;;2.43;1.80;;;;;;;;;;5019371;28;20323;-79
2022/05/29 01:57:36;;;;;;;2.67;1.73;;;;;;;;;;5024287;28;20204;-78
2022/05/29 02:00:01;;;;;;;5.67;2.27;;;;;;;;;;4990282;28;20194;-79
2022/05/29 02:02:29;;;;;;;3.72;1.95;;;;;;;;;;4991393;28;20186;-79
2022/05/29 02:04:56;;;;;;;4.27;2.53;;;;;;;;;;4996525;28;20200;-79
2022/05/29 02:08:08;;;;;;;5.47;2.13;;;;;;;;;;5014702;28;20187;-78
2022/05/29 02:10:11;;;;;;;2.10;1.90;;;;;;;;;;4999094;28;20196;-79
2022/05/29 02:12:38;;;;;;;3.73;1.87;;;;;;;;;;4987424;28;20224;-79
2022/05/29 02:15:11;;;;;;;4.30;2.10;;;;;;;;;;4995251;28;20180;-79
2022/05/29 02:17:42;;;;;;;5.03;2.20;;;;;;;;;;5007591;28;20244;-79
2022/05/29 02:20:10;;;;;;;3.10;2.00;;;;;;;;;;5002554;28;20279;-79
2022/05/29 02:22:36;;;;;;;2.03;1.83;;;;;;;;;;5007226;28;20179;-78
2022/05/29 02:25:15;;;;;;;1.73;1.50;;;;;;;;;;5010803;28;20184;-79
2022/05/29 02:27:46;;;;;;;2.90;1.90;;;;;;;;;;5022234;28;20195;-79
2022/05/29 02:30:12;;;;;;;2.07;1.63;;;;;;;;;;4993324;28;20263;-79
2022/05/29 02:32:47;;;;;;;3.43;1.90;;;;;;;;;;4993851;28;20175;-79
2022/05/29 02:35:18;;;;;;;2.00;1.80;;;;;;;;;;4991203;28;20185;-79
2022/05/29 02:37:52;;;;;;;4.30;1.70;;;;;;;;;;4985115;28;20207;-79
2022/05/29 02:40:43;;;;;;;2.53;1.93;;;;;;;;;;5021814;28;20173;-79
2022/05/29 02:43:18;;;;;;;3.37;1.87;;;;;;;;;;4983922;28;20275;-79
2022/05/29 02:45:46;;;;;;;3.90;2.47;;;;;;;;;;5008655;28;20176;-78
2022/05/29 02:48:23;;;;;;;3.67;2.00;;;;;;;;;;4990017;28;20172;-79
2022/05/29 02:51:07;;;;;;;3.73;2.07;;;;;;;;;;5015140;28;20167;-79
2022/05/29 02:53:33;;;;;;;2.70;1.70;;;;;;;;;;5008219;28;20203;-79
2022/05/29 02:55:59;;;;;;;5.23;2.20;;;;;;;;;;5007412;28;20175;-78
2022/05/29 02:58:26;;;;;;;3.60;1.90;;;;;;;;;;5010617;28;20186;-79
2022/05/29 03:00:57;;;;;;;1.87;1.50;;;;;;;;;;4996484;28;20226;-79
2022/05/29 03:03:32;;;;;;;2.70;1.80;;;;;;;;;;5003987;28;20163;-78
2022/05/29 03:06:13;;;;;;;4.37;2.17;;;;;;;;;;4990763;28;20186;-79
2022/05/29 03:08:58;;;;;;;2.27;1.93;;;;;;;;;;5009239;28;20180;-78
2022/05/29 03:11:32;;;;;;;4.23;2.37;;;;;;;;;;4988530;28;20224;-78
2022/05/29 03:14:03;;;;;;;2.87;2.00;;;;;;;;;;4996011;28;20289;-79
2022/05/29 03:16:37;;;;;;;2.70;1.80;;;;;;;;;;4992758;28;20207;-79
2022/05/29 03:19:11;;;;;;;6.43;2.90;;;;;;;;;;4997841;28;20183;-79
2022/05/29 03:21:59;;;;;;;1.87;1.77;;;;;;;;;;4995305;28;20166;-79
2022/05/29 03:24:28;;;;;;;4.43;2.10;;;;;;;;;;5005932;28;20194;-80
2022/05/29 03:26:57;;;;;;;2.83;1.90;;;;;;;;;;4996263;28;20180;-80
2022/05/29 03:29:25;;;;;;;2.73;2.10;;;;;;;;;;5000403;28;20183;-81
2022/05/29 03:31:50;;;;;;;4.17;2.20;;;;;;;;;;5014071;28;20207;-81
2022/05/29 03:34:15;;;;;;;5.63;2.13;;;;;;;;;;4997765;28;20234;-79
2022/05/29 03:36:45;;;;;;;6.03;2.20;;;;;;;;;;4994679;28;20268;-79
2022/05/29 03:39:10;;;;;;;2.30;2.10;;;;;;;;;;5014431;28;20176;-80
2022/05/29 03:41:43;;;;;;;3.27;2.97;;;;;;;;;;5028404;28;20215;-80
2022/05/29 03:44:08;;;;;;;8.70;2.00;;;;;;;;;;4994951;28;20179;-79
2022/05/29 03:46:33;;;;;;;1.70;1.60;;;;;;;;;;5000056;28;20180;-80
2022/05/29 03:48:58;;;;;;;1.97;1.87;;;;;;;;;;4995479;28;20183;-81
2022/05/29 03:51:26;;;;;;;2.40;2.20;;;;;;;;;;4995949;28;20183;-80
2022/05/29 03:53:51;;;;;;;4.70;2.30;;;;;;;;;;4996158;28;20179;-80
2022/05/29 03:56:16;;;;;;;2.10;2.00;;;;;;;;;;5017441;28;20200;-80
2022/05/29 04:01:09;;;;;;;3.83;2.30;;;;;;;;;;5001594;28;20242;-75
2022/05/29 04:03:35;;;;;;;2.70;2.50;;;;;;;;;;5003802;28;20180;-75
2022/05/29 04:06:00;;;;;;;4.03;2.70;;;;;;;;;;4994827;28;20184;-75
2022/05/29 04:13:53;;;;;;;2.83;2.40;;;;;;;;;;5013761;28;20202;-75
2022/05/29 04:16:18;;;;;;;4.90;2.50;;;;;;;;;;4992938;28;20215;-75
2022/05/29 04:18:44;;;;;;;2.37;2.17;;;;;;;;;;5022293;28;20180;-75
2022/05/29 04:21:09;;;;;;;2.87;2.13;;;;;;;;;;4999920;28;20175;-75
2022/05/29 04:23:34;;;;;;;3.30;2.20;;;;;;;;;;5019720;28;20180;-76
2022/05/29 04:26:00;;;;;;;5.20;2.47;;;;;;;;;;4996561;28;20175;-75
2022/05/29 04:28:25;;;;;;;2.40;2.20;;;;;;;;;;4992135;28;20183;-76
2022/05/29 04:30:50;;;;;;;3.77;2.47;;;;;;;;;;5005725;28;20182;-75
2022/05/29 04:33:15;;;;;;;2.63;2.30;;;;;;;;;;5011963;28;21288;-75
2022/05/29 04:35:42;;;;;;;3.33;2.50;;;;;;;;;;5022394;28;20180;-75
2022/05/29 04:38:08;;;;;;;7.27;2.30;;;;;;;;;;4994139;28;20211;-75
2022/05/29 04:40:35;;;;;;;4.30;2.40;;;;;;;;;;4999245;28;20192;-75
2022/05/29 04:43:00;;;;;;;7.00;2.77;;;;;;;;;;4998594;28;20175;-75
2022/05/29 04:45:26;;;;;;;2.80;2.50;;;;;;;;;;4994927;28;20170;-75
2022/05/29 04:47:51;;;;;;;5.97;2.70;;;;;;;;;;5014475;28;20183;-75
2022/05/29 04:50:17;;;;;;;4.37;3.97;;;;;;;;;;4989368;28;20192;-75
2022/05/29 04:52:43;;;;;;;4.13;2.57;;;;;;;;;;4993234;28;20186;-75
2022/05/29 04:55:08;;;;;;;3.90;2.57;;;;;;;;;;4995504;28;20183;-75
2022/05/29 04:57:34;;;;;;;4.80;2.80;;;;;;;;;;4994996;28;20216;-75
2022/05/29 04:59:59;;;;;;;6.00;2.87;;;;;;;;;;5006254;28;20231;-75
2022/05/29 05:02:25;;;;;;;3.80;2.40;;;;;;;;;;4975894;28;20210;-75
2022/05/29 05:04:50;;;;;;;3.90;2.50;;;;;;;;;;4976385;28;20172;-75
2022/05/29 05:07:15;;;;;;;2.67;2.47;;;;;;;;;;4978036;28;20177;-75
2022/05/29 05:09:40;;;;;;;4.43;2.80;;;;;;;;;;4996040;28;20192;-76
2022/05/29 05:12:06;;;;;;;2.93;2.73;;;;;;;;;;4971037;28;20437;-76
2022/05/29 05:14:33;;;;;;;4.07;2.73;;;;;;;;;;4985032;28;20216;-75
2022/05/29 05:16:58;;;;;;;3.87;2.53;;;;;;;;;;4976031;28;20200;-75
2022/05/29 05:19:23;;;;;;;3.27;2.97;;;;;;;;;;4988624;28;20187;-75
2022/05/29 05:21:49;;;;;;;4.70;2.63;;;;;;;;;;4973617;28;20172;-75
2022/05/29 05:24:15;;;;;;;4.57;2.70;;;;;;;;;;4972608;28;20222;-75
2022/05/29 05:26:41;;;;;;;4.70;2.63;;;;;;;;;;4965368;28;20180;-75
2022/05/29 05:29:06;;;;;;;7.10;2.83;;;;;;;;;;4961213;28;20192;-75
2022/05/29 05:31:32;;;;;;;2.93;2.50;;;;;;;;;;4974377;28;20218;-75
2022/05/29 05:33:57;;;;;;;5.30;2.93;;;;;;;;;;4982426;28;20179;-75
2022/05/29 05:36:22;;;;;;;3.80;2.70;;;;;;;;;;4997303;28;20201;-75
2022/05/29 05:38:48;;;;;;;5.60;2.93;;;;;;;;;;4970992;28;20308;-75
2022/05/29 05:41:14;;;;;;;3.77;2.80;;;;;;;;;;4973443;28;20208;-74
2022/05/29 05:43:40;;;;;;;3.03;2.63;;;;;;;;;;4978847;28;20232;-75
2022/05/29 05:46:06;;;;;;;4.83;2.70;;;;;;;;;;4972931;28;20176;-75
2022/05/29 05:48:31;;;;;;;3.17;2.30;;;;;;;;;;4999481;28;20176;-75
2022/05/29 05:50:57;;;;;;;4.33;2.30;;;;;;;;;;5007306;28;20180;-75
2022/05/29 05:53:22;;;;;;;3.47;2.67;;;;;;;;;;4974948;28;20188;-74
2022/05/29 05:55:48;;;;;;;6.03;2.80;;;;;;;;;;4974969;28;20180;-74
2022/05/29 05:58:14;;;;;;;4.67;3.07;;;;;;;;;;4990805;28;20211;-75
2022/05/29 06:03:20;;;;;;;3.90;2.10;;;;;;;;;;5010802;28;20246;-74
2022/05/29 06:05:48;;;;;;;3.43;2.60;;;;;;;;;;5011282;28;20254;-74
2022/05/29 06:08:13;;;;;;;5.13;1.93;;;;;;;;;;5023039;28;20176;-74
2022/05/29 06:10:38;;;;;;;3.67;2.17;;;;;;;;;;5001902;28;20226;-74
2022/05/29 06:13:07;;;;;;;3.57;2.50;;;;;;;;;;5018381;28;20177;-74
2022/05/29 06:15:32;;;;;;;3.63;2.40;;;;;;;;;;4982824;28;20245;-73
2022/05/29 06:17:58;;;;;;;6.17;2.37;;;;;;;;;;5010088;28;20295;-73
2022/05/29 06:20:24;;;;;;;4.67;2.43;;;;;;;;;;4990251;28;20176;-73
2022/05/29 06:22:49;;;;;;;3.73;2.07;;;;;;;;;;5012656;28;20196;-74
2022/05/29 06:25:15;;;;;;;3.87;2.10;;;;;;;;;;4988190;28;20208;-74
2022/05/29 06:27:41;;;;;;;2.63;2.43;;;;;;;;;;4986940;28;20203;-74
2022/05/29 06:30:08;;;;;;;3.93;3.17;;;;;;;;;;4982030;28;20284;-74
2022/05/29 06:32:34;;;;;;;1.70;1.60;;;;;;;;;;4983463;28;20201;-76
2022/05/29 06:34:59;;;;;;;6.40;2.40;;;;;;;;;;4989484;28;20249;-76
2022/05/29 06:37:24;;;;;;;2.90;1.63;;;;;;;;;;5008770;28;20192;-76
2022/05/29 06:39:50;;;;;;;4.33;2.47;;;;;;;;;;4990884;28;20186;-76
2022/05/29 06:42:15;;;;;;;2.90;2.20;;;;;;;;;;5002620;28;20471;-75
2022/05/29 06:44:41;;;;;;;4.90;2.13;;;;;;;;;;5008639;28;20252;-76
2022/05/29 06:47:07;;;;;;;2.93;2.20;;;;;;;;;;4993849;28;20184;-76
2022/05/29 06:49:33;;;;;;;3.03;2.10;;;;;;;;;;5000085;28;20185;-76
2022/05/29 06:51:58;;;;;;;3.27;2.43;;;;;;;;;;4987475;28;20189;-76
2022/05/29 06:54:23;;;;;;;3.70;2.27;;;;;;;;;;4988740;28;20184;-74
2022/05/29 06:56:48;;;;;;;7.00;2.57;;;;;;;;;;4994430;28;20243;-73
2022/05/29 06:59:13;;;;;;;6.43;2.70;;;;;;;;;;5016488;28;20184;-73
2022/05/29 07:07:09;;;;;;;5.60;2.63;;;;;;;;;;5032190;28;20185;-73
2022/05/29 07:09:36;;;;;;;3.90;2.30;;;;;;;;;;5006669;28;20183;-73
2022/05/29 07:12:01;;;;;;;4.43;2.27;;;;;;;;;;5019412;28;20182;-73
2022/05/29 07:14:27;;;;;;;3.50;2.20;;;;;;;;;;5031572;28;20176;-73
2022/05/29 07:16:52;;;;;;;4.90;2.40;;;;;;;;;;5032902;28;20203;-73
2022/05/29 07:19:22;;;;;;;4.87;2.50;;;;;;;;;;5029709;28;20252;-73
2022/05/29 07:21:47;;;;;;;7.00;2.90;;;;;;;;;;5010829;28;20194;-73
2022/05/29 07:24:13;;;;;;;3.57;2.40;;;;;;;;;;5031703;28;20271;-73
2022/05/29 07:26:38;;;;;;;5.50;2.33;;;;;;;;;;5014606;28;20185;-73
2022/05/29 07:29:04;;;;;;;3.73;2.20;;;;;;;;;;5008247;28;20186;-73
2022/05/29 07:31:29;;;;;;;4.70;3.10;;;;;;;;;;5010714;28;20183;-74
2022/05/29 07:33:55;;;;;;;8.37;2.90;;;;;;;;;;5012332;28;20283;-73
2022/05/29 07:36:22;;;;;;;3.80;2.80;;;;;;;;;;5033607;28;20197;-73
2022/05/29 07:38:47;;;;;;;3.53;2.83;;;;;;;;;;5012860;28;20238;-73
2022/05/29 07:43:56;;;;;;;2.27;2.07;;;;;;;;;;5029388;28;20264;-73
2022/05/29 07:46:22;;;;;;;4.57;3.10;;;;;;;;;;5019671;28;20270;-73
2022/05/29 07:48:47;;;;;;;6.93;2.83;;;;;;;;;;5033255;28;20187;-73
2022/05/29 07:51:13;;;;;;;4.83;2.93;;;;;;;;;;5019849;28;20175;-73
2022/05/29 07:53:38;;;;;;;4.80;2.70;;;;;;;;;;5034782;28;20176;-73
2022/05/29 07:56:07;;;;;;;4.87;3.13;;;;;;;;;;5015318;28;20188;-74
2022/05/29 07:58:38;;;;;;;4.13;2.73;;;;;;;;;;5007882;28;20208;-74
2022/05/29 08:01:03;;;;;;;7.27;3.13;;;;;;;;;;5023411;28;20199;-75
2022/05/29 08:03:28;;;;;;;3.90;2.70;;;;;;;;;;5015144;28;20171;-75
2022/05/29 08:05:55;;;;;;;6.13;4.90;;;;;;;;;;5013596;28;20175;-76
2022/05/29 08:08:20;;;;;;;7.20;4.07;;;;;;;;;;5039308;28;20170;-75
2022/05/29 08:10:45;;;;;;;2.97;2.70;;;;;;;;;;5030234;28;20252;-76
2022/05/29 08:13:11;;;;;;;3.90;3.27;;;;;;;;;;5015982;28;20179;-75
2022/05/29 08:15:37;;;;;;;5.97;2.60;;;;;;;;;;5014017;28;20176;-75
2022/05/29 08:18:03;;;;;;;6.50;4.37;;;;;;;;;;5008865;28;20414;-75
2022/05/29 08:20:29;;;;;;;3.93;3.10;;;;;;;;;;5009374;28;20207;-74
2022/05/29 08:22:54;;;;;;;5.53;3.43;;;;;;;;;;5002133;28;20195;-75
2022/05/29 08:30:53;;;;;;;8.90;4.93;;;;;;;;;;5023989;28;20186;-75
2022/05/29 08:33:21;;;;;;;8.00;4.80;;;;;;;;;;5011695;28;20231;-74
2022/05/29 08:35:47;;;;;;;8.93;4.27;;;;;;;;;;5012471;28;20202;-75
2022/05/29 08:38:13;;;;;;;10.07;5.87;;;;;;;;;;5021576;28;20306;-76
2022/05/29 08:40:40;;;;;;;7.33;5.43;;;;;;;;;;5013176;28;20258;-75
2022/05/29 08:43:07;;;;;;;9.37;4.90;;;;;;;;;;5010277;28;20278;-75
2022/05/29 08:45:34;;;;;;;5.83;4.70;;;;;;;;;;5010294;28;20183;-75
2022/05/29 08:48:00;;;;;;;7.83;4.50;;;;;;;;;;5008708;28;20207;-76
2022/05/29 08:50:33;;;;;;;8.07;5.47;;;;;;;;;;5010078;28;20219;-76
2022/05/29 08:53:03;;;;;;;43.67;19.00;;;;;;;;;;5008128;28;20178;-75
2022/05/29 08:55:30;;;;;;;15.20;9.13;;;;;;;;;;5009607;28;20206;-75
2022/05/29 08:58:20;;;;;;;13.27;7.00;;;;;;;;;;5019329;28;20202;-76
2022/05/29 09:01:15;;;;;;;5.10;4.40;;;;;;;;;;5021362;28;20191;-76
2022/05/29 09:03:51;;;;;;;6.30;4.20;;;;;;;;;;4977191;28;20198;-75
2022/05/29 09:06:18;;;;;;;5.30;4.27;;;;;;;;;;4994325;28;20179;-76
2022/05/29 09:08:57;;;;;;;5.07;4.00;;;;;;;;;;4993567;28;20179;-76
2022/05/29 09:11:55;;;;;;;5.30;4.60;;;;;;;;;;4995014;28;20178;-76
2022/05/29 09:14:24;;;;;;;22.27;14.53;;;;;;;;;;4945902;28;20199;-75
2022/05/29 09:16:54;;;;;;;6.67;5.00;;;;;;;;;;4986386;28;20197;-75
2022/05/29 09:19:25;;;;;;;10.53;7.87;;;;;;;;;;5020039;28;20271;-74
2022/05/29 09:21:52;;;;;;;8.77;7.37;;;;;;;;;;4982887;28;20179;-75
2022/05/29 09:24:32;;;;;;;15.40;10.90;;;;;;;;;;5007890;28;20170;-75
2022/05/29 09:26:57;;;;;;;6.40;5.47;;;;;;;;;;4985304;28;20223;-75
2022/05/29 09:29:23;;;;;;;6.57;4.97;;;;;;;;;;4981086;28;20184;-75
2022/05/29 09:31:48;;;;;;;5.97;4.67;;;;;;;;;;4993206;28;20184;-75
2022/05/29 09:34:13;;;;;;;5.17;4.43;;;;;;;;;;4994686;28;20180;-76
2022/05/29 09:36:57;;;;;;;7.17;4.73;;;;;;;;;;4989674;28;20207;-76
2022/05/29 09:39:26;;;;;;;10.10;5.37;;;;;;;;;;4993627;28;20207;-75
2022/05/29 09:42:09;;;;;;;6.40;4.50;;;;;;;;;;4995129;28;20173;-76
2022/05/29 09:44:34;;;;;;;5.53;3.73;;;;;;;;;;4992721;28;20210;-75
2022/05/29 09:50:01;;;;;;;4.97;3.50;;;;;;;;;;5006618;28;20198;-75
2022/05/29 09:52:28;;;;;;;5.37;3.30;;;;;;;;;;5013085;28;20204;-75
2022/05/29 09:55:02;;;;;;;4.87;3.37;;;;;;;;;;5011454;28;20184;-74
2022/05/29 09:57:32;;;;;;;4.43;3.43;;;;;;;;;;4985508;28;20207;-74
2022/05/29 10:00:05;;;;;;;3.60;2.77;;;;;;;;;;4988442;28;20211;-75
2022/05/29 10:02:35;;;;;;;3.27;2.77;;;;;;;;;;5016620;28;20311;-75
2022/05/29 10:05:00;;;;;;;2.70;2.13;;;;;;;;;;4990354;28;20181;-75
2022/05/29 10:07:30;;;;;;;2.47;2.27;;;;;;;;;;4992123;28;20196;-75
2022/05/29 10:09:57;;;;;;;4.37;3.37;;;;;;;;;;5009852;28;20193;-75
2022/05/29 10:12:32;;;;;;;3.67;3.20;;;;;;;;;;4994956;28;20192;-75
2022/05/29 10:14:57;;;;;;;3.23;2.93;;;;;;;;;;4990007;28;20189;-75
2022/05/29 10:17:29;;;;;;;3.90;3.13;;;;;;;;;;5001789;28;20201;-75
2022/05/29 10:19:55;;;;;;;3.37;3.00;;;;;;;;;;4983617;28;20196;-76
2022/05/29 10:22:20;;;;;;;4.07;2.87;;;;;;;;;;5009322;28;20225;-75
2022/05/29 10:24:45;;;;;;;3.03;2.73;;;;;;;;;;5001359;28;20226;-74
2022/05/29 10:27:20;;;;;;;3.90;2.80;;;;;;;;;;4992042;28;20251;-74
2022/05/29 10:29:51;;;;;;;3.63;2.13;;;;;;;;;;5009788;28;20223;-74
2022/05/29 10:32:21;;;;;;;3.93;2.30;;;;;;;;;;4994456;28;20223;-75
2022/05/29 10:34:47;;;;;;;2.97;2.67;;;;;;;;;;4988254;28;20192;-75
2022/05/29 10:37:38;;;;;;;2.50;2.30;;;;;;;;;;4981528;28;20224;-75
2022/05/29 10:40:22;;;;;;;2.67;2.47;;;;;;;;;;4984852;28;20186;-75
2022/05/29 10:42:49;;;;;;;2.87;2.40;;;;;;;;;;5006992;28;20181;-76
2022/05/29 10:45:19;;;;;;;2.87;2.33;;;;;;;;;;4992344;28;20189;-77
2022/05/29 10:47:52;;;;;;;4.10;2.30;;;;;;;;;;5000385;28;20178;-75
2022/05/29 10:50:32;;;;;;;2.07;1.77;;;;;;;;;;4998931;28;20193;-75
2022/05/29 10:53:04;;;;;;;2.37;2.10;;;;;;;;;;4989619;28;20284;-75
2022/05/29 10:55:29;;;;;;;2.07;1.87;;;;;;;;;;4989341;28;20176;-76
2022/05/29 10:58:05;;;;;;;3.80;2.50;;;;;;;;;;5013566;28;20221;-76
2022/05/29 11:00:37;;;;;;;4.50;3.50;;;;;;;;;;4984277;28;20210;-75
2022/05/29 11:03:23;;;;;;;3.50;2.63;;;;;;;;;;5013247;28;20226;-75
2022/05/29 11:05:54;;;;;;;6.27;2.87;;;;;;;;;;5026827;28;20231;-75
2022/05/29 11:08:20;;;;;;;3.63;2.20;;;;;;;;;;5023036;28;20193;-75
2022/05/29 11:10:54;;;;;;;4.40;2.30;;;;;;;;;;5010687;28;20186;-75
2022/05/29 11:13:22;;;;;;;4.70;2.50;;;;;;;;;;5031751;28;20270;-75
2022/05/29 11:16:06;;;;;;;4.43;2.53;;;;;;;;;;5034183;28;20182;-75
2022/05/29 11:18:40;;;;;;;5.50;2.57;;;;;;;;;;5022579;28;20197;-75
2022/05/29 11:21:08;;;;;;;2.87;2.30;;;;;;;;;;5003912;28;20225;-75
2022/05/29 11:23:40;;;;;;;2.27;2.10;;;;;;;;;;5024851;28;20181;-76
2022/05/29 11:26:26;;;;;;;2.53;2.30;;;;;;;;;;5023122;28;20193;-75
2022/05/29 11:29:15;;;;;;;2.20;2.00;;;;;;;;;;5007482;28;20182;-75
2022/05/29 11:31:43;;;;;;;4.10;2.37;;;;;;;;;;4967813;28;20222;-74
2022/05/29 11:34:22;;;;;;;2.33;2.00;;;;;;;;;;5027749;28;20182;-75
2022/05/29 11:37:02;;;;;;;2.53;2.33;;;;;;;;;;5043162;28;20213;-75
2022/05/29 11:39:40;;;;;;;3.77;2.10;;;;;;;;;;5025950;28;20205;-75
2022/05/29 11:42:21;;;;;;;3.03;1.70;;;;;;;;;;5020740;28;20181;-75
2022/05/29 11:44:54;;;;;;;3.20;2.27;;;;;;;;;;5012996;28;20195;-75
2022/05/29 11:51:07;;;;;;;2.20;1.50;;;;;;;;;;5026574;28;20231;-75
2022/05/29 11:53:22;;;;;;;1.50;1.40;;;;;;;;;;5032785;28;20197;-75
2022/05/29 11:55:48;;;;;;;2.67;1.63;;;;;;;;;;5020227;28;20188;-75
2022/05/29 11:58:17;;;;;;;3.70;1.57;;;;;;;;;;5001570;28;20215;-74
2022/05/29 12:00:54;;;;;;;4.73;2.20;;;;;;;;;;5026817;28;20270;-74
2022/05/29 12:03:25;;;;;;;3.00;1.60;;;;;;;;;;5010799;28;20256;-74
2022/05/29 12:05:56;;;;;;;2.33;1.80;;;;;;;;;;5012316;28;20180;-75
2022/05/29 12:08:27;;;;;;;4.03;1.70;;;;;;;;;;5014031;28;20181;-75
2022/05/29 12:11:11;;;;;;;2.00;1.70;;;;;;;;;;5026909;28;20239;-75
2022/05/29 12:13:39;;;;;;;2.47;1.80;;;;;;;;;;5025823;28;20196;-75
2022/05/29 12:16:07;;;;;;;2.70;1.53;;;;;;;;;;5002274;28;20185;-75
2022/05/29 12:18:38;;;;;;;2.90;1.90;;;;;;;;;;5023927;28;20185;-75
2022/05/29 12:21:03;;;;;;;4.87;1.70;;;;;;;;;;5011671;28;20187;-75
2022/05/29 12:23:37;;;;;;;3.80;2.13;;;;;;;;;;5024758;28;20201;-74
2022/05/29 12:26:06;;;;;;;1.70;1.60;;;;;;;;;;5006911;28;20215;-75
2022/05/29 12:28:52;;;;;;;1.60;1.47;;;;;;;;;;5024927;28;20190;-74
2022/05/29 12:31:31;;;;;;;3.40;1.73;;;;;;;;;;5023102;28;20194;-75
2022/05/29 12:33:56;;;;;;;3.50;1.73;;;;;;;;;;5018208;28;20188;-75
2022/05/29 12:36:55;;;;;;;3.20;1.50;;;;;;;;;;5030425;28;20490;-74
2022/05/29 12:39:24;;;;;;;2.07;1.50;;;;;;;;;;5031261;28;20180;-75
2022/05/29 12:41:55;;;;;;;2.80;1.80;;;;;;;;;;5031271;28;20239;-74
2022/05/29 12:44:27;;;;;;;3.70;1.47;;;;;;;;;;5022934;28;20182;-75
2022/05/29 12:47:02;;;;;;;4.07;2.10;;;;;;;;;;5012542;28;20195;-75
2022/05/29 12:49:39;;;;;;;2.30;1.73;;;;;;;;;;5007773;28;20174;-74
2022/05/29 12:52:10;;;;;;;2.00;1.60;;;;;;;;;;5008004;28;20276;-74
2022/05/29 12:54:53;;;;;;;1.87;1.77;;;;;;;;;;5024827;28;20178;-75
2022/05/29 12:57:39;;;;;;;3.97;1.80;;;;;;;;;;5029559;28;20201;-75
2022/05/29 13:00:10;;;;;;;2.97;2.23;;;;;;;;;;5028844;28;20183;-75
2022/05/29 13:02:41;;;;;;;3.00;1.73;;;;;;;;;;5013425;28;20232;-74
2022/05/29 13:05:06;;;;;;;2.37;1.60;;;;;;;;;;5031273;28;20285;-74
2022/05/29 13:07:52;;;;;;;3.17;1.73;;;;;;;;;;5011327;28;20298;-74
2022/05/29 13:10:25;;;;;;;2.07;1.47;;;;;;;;;;5015171;28;20191;-74
2022/05/29 13:12:52;;;;;;;3.20;1.83;;;;;;;;;;5020487;28;20178;-75
2022/05/29 13:15:37;;;;;;;2.00;1.70;;;;;;;;;;5023826;28;20210;-74
2022/05/29 13:21:05;;;;;;;2.43;1.97;;;;;;;;;;5024782;28;20225;-75
2022/05/29 13:23:32;;;;;;;1.97;1.50;;;;;;;;;;5021489;28;20225;-74
2022/05/29 13:25:57;;;;;;;4.57;1.90;;;;;;;;;;5004156;28;20189;-75
2022/05/29 13:28:32;;;;;;;3.47;2.10;;;;;;;;;;5024158;28;20179;-74
2022/05/29 13:31:07;;;;;;;4.47;1.77;;;;;;;;;;5012690;28;20213;-74
2022/05/29 13:33:32;;;;;;;3.10;1.50;;;;;;;;;;5006924;28;20178;-74
2022/05/29 13:36:01;;;;;;;5.35;1.85;;;;;;;;;;5014805;28;20196;-74
2022/05/29 13:38:44;;;;;;;3.87;2.23;;;;;;;;;;5005657;28;20334;-74
2022/05/29 13:41:30;;;;;;;3.73;1.53;;;;;;;;;;5009084;28;20183;-74
2022/05/29 13:43:56;;;;;;;6.50;2.17;;;;;;;;;;5031230;28;20205;-74
2022/05/29 13:46:25;;;;;;;3.63;1.67;;;;;;;;;;5031543;28;20232;-74
2022/05/29 13:49:06;;;;;;;2.20;1.80;;;;;;;;;;5012698;28;20175;-74
2022/05/29 13:51:41;;;;;;;2.23;1.93;;;;;;;;;;5018679;28;20185;-74
2022/05/29 13:54:07;;;;;;;2.67;1.60;;;;;;;;;;5015639;28;20266;-74
2022/05/29 13:56:58;;;;;;;2.23;1.80;;;;;;;;;;5026927;28;20203;-74
2022/05/29 14:03:58;;;;;;;3.13;1.40;;;;;;;;;;5022974;28;20239;-74
2022/05/29 14:05:11;;;;;;;2.87;1.80;;;;;;;;;;5027400;28;20209;-74
2022/05/29 14:07:36;;;;;;;3.00;1.90;;;;;;;;;;5027702;28;20167;-74
2022/05/29 14:10:07;;;;;;;3.97;1.70;;;;;;;;;;5013590;28;20178;-74
2022/05/29 14:12:47;;;;;;;1.83;1.57;;;;;;;;;;5009841;28;20176;-74
2022/05/29 14:15:31;;;;;;;4.27;1.80;;;;;;;;;;5004307;28;20266;-74
2022/05/29 14:17:58;;;;;;;1.83;1.60;;;;;;;;;;5022701;28;20209;-74
2022/05/29 14:20:23;;;;;;;1.73;1.63;;;;;;;;;;5029453;28;20204;-74
2022/05/29 14:23:03;;;;;;;3.00;1.80;;;;;;;;;;5005684;28;20207;-74
2022/05/29 14:25:38;;;;;;;5.67;2.10;;;;;;;;;;5013589;28;20215;-74
2022/05/29 14:28:09;;;;;;;3.37;1.87;;;;;;;;;;5000975;28;20184;-74
2022/05/29 14:30:34;;;;;;;5.57;2.83;;;;;;;;;;5002663;28;20174;-74
2022/05/29 14:33:05;;;;;;;3.20;1.70;;;;;;;;;;4998470;28;20194;-74
2022/05/29 14:35:36;;;;;;;3.13;1.90;;;;;;;;;;5027832;28;20178;-74
2022/05/29 14:38:15;;;;;;;1.90;1.43;;;;;;;;;;4994332;28;20262;-74
2022/05/29 14:40:48;;;;;;;2.37;1.90;;;;;;;;;;5013424;28;20197;-73
2022/05/29 14:43:17;;;;;;;3.00;1.83;;;;;;;;;;5013260;28;20228;-74
2022/05/29 14:45:47;;;;;;;4.37;1.67;;;;;;;;;;5013149;28;20178;-73
2022/05/29 14:48:19;;;;;;;4.13;1.50;;;;;;;;;;5008130;28;20290;-73
2022/05/29 14:50:47;;;;;;;2.87;1.57;;;;;;;;;;5010974;28;20388;-73
2022/05/29 14:53:40;;;;;;;1.87;1.33;;;;;;;;;;5011291;28;20279;-74
2022/05/29 14:56:07;;;;;;;2.43;1.60;;;;;;;;;;4983129;28;20413;-74
2022/05/29 14:58:32;;;;;;;4.00;2.00;;;;;;;;;;5008967;28;20227;-74
2022/05/29 15:01:06;;;;;;;3.10;2.43;;;;;;;;;;5013668;28;20227;-73
2022/05/29 15:03:36;;;;;;;3.30;1.70;;;;;;;;;;4991528;28;20221;-73
2022/05/29 15:06:02;;;;;;;3.83;2.07;;;;;;;;;;4992376;28;20181;-73
2022/05/29 15:11:19;;;;;;;4.53;1.80;;;;;;;;;;5005940;28;20238;-74
2022/05/29 15:14:00;;;;;;;3.23;1.57;;;;;;;;;;4998286;28;20185;-74
2022/05/29 15:16:51;;;;;;;3.13;1.67;;;;;;;;;;4996146;28;20177;-73
2022/05/29 15:19:21;;;;;;;3.00;1.50;;;;;;;;;;5016034;28;20176;-74
2022/05/29 15:24:40;;;;;;;5.33;1.70;;;;;;;;;;5002027;28;20186;-73
2022/05/29 15:27:10;;;;;;;3.93;1.60;;;;;;;;;;4989641;28;20185;-74
2022/05/29 15:29:36;;;;;;;2.70;1.63;;;;;;;;;;5017785;28;20182;-73
2022/05/29 15:32:04;;;;;;;4.87;1.70;;;;;;;;;;4997158;28;20211;-73
2022/05/29 15:34:44;;;;;;;1.90;1.40;;;;;;;;;;4996298;28;20270;-73
2022/05/29 15:37:12;;;;;;;3.33;1.63;;;;;;;;;;5001455;28;20226;-73
2022/05/29 15:39:56;;;;;;;1.87;1.70;;;;;;;;;;5003706;28;20175;-73
2022/05/29 15:42:25;;;;;;;4.17;1.73;;;;;;;;;;4988692;28;20219;-73